createdAt,value
2022-11-03T00:02:08.137Z,14.73
2022-11-03T00:04:34.970Z,43.85
2022-11-03T00:07:01.678Z,49.13
2022-11-03T00:09:28.532Z,35.70
2022-11-03T00:11:55.288Z,25.55
2022-11-03T00:14:21.969Z,29.25
2022-11-03T00:16:48.987Z,33.97
2022-11-03T00:19:17.060Z,40.00
2022-11-03T00:21:44.833Z,39.85
2022-11-03T00:24:12.055Z,39.40
2022-11-03T00:26:39.363Z,39.97
2022-11-03T00:29:11.958Z,38.58
2022-11-03T00:31:40.516Z,33.10
2022-11-03T00:34:07.959Z,32.83
2022-11-03T00:36:36.025Z,25.42
2022-11-03T00:39:04.109Z,33.75
2022-11-03T00:41:31.112Z,31.30
2022-11-03T00:43:58.464Z,21.77
2022-11-03T00:46:28.807Z,25.60
2022-11-03T00:48:55.764Z,21.45
2022-11-03T00:51:27.809Z,26.90
2022-11-03T00:53:56.766Z,25.73
2022-11-03T00:56:28.839Z,30.67
2022-11-03T00:58:57.661Z,30.05
2022-11-03T01:01:37.041Z,33.03
2022-11-03T01:04:25.074Z,20.02
2022-11-03T01:06:54.525Z,16.77
2022-11-03T01:09:33.393Z,20.02
2022-11-03T01:12:06.159Z,17.27
2022-11-03T01:14:37.276Z,13.23
2022-11-03T01:17:13.282Z,15.68
2022-11-03T01:19:40.369Z,14.57
2022-11-03T01:22:10.826Z,24.30
2022-11-03T01:24:39.356Z,30.58
2022-11-03T01:27:06.110Z,25.58
2022-11-03T01:29:32.800Z,14.48
2022-11-03T01:31:59.913Z,17.77
2022-11-03T01:34:26.685Z,19.50
2022-11-03T01:36:53.427Z,14.13
2022-11-03T01:39:20.450Z,19.10
2022-11-03T01:41:50.328Z,18.15
2022-11-03T01:44:17.033Z,15.18
2022-11-03T01:46:48.534Z,26.50
2022-11-03T01:49:20.466Z,22.25
2022-11-03T01:51:51.750Z,16.27
2022-11-03T01:54:21.523Z,18.17
2022-11-03T01:56:48.902Z,19.45
2022-11-03T01:59:16.937Z,35.08
2022-11-03T02:01:45.380Z,38.95
2022-11-03T02:04:25.345Z,22.83
2022-11-03T02:07:02.069Z,26.20
2022-11-03T02:09:30.421Z,31.88
2022-11-03T02:12:06.296Z,24.08
2022-11-03T02:14:34.017Z,26.13
2022-11-03T02:17:05.996Z,24.40
2022-11-03T02:19:47.337Z,18.23
2022-11-03T02:22:27.114Z,17.77
2022-11-03T02:25:25.941Z,21.92
2022-11-03T02:27:52.777Z,28.70
2022-11-03T02:30:19.497Z,40.13
2022-11-03T02:32:55.078Z,29.35
2022-11-03T02:35:45.133Z,22.30
2022-11-03T02:38:16.142Z,18.15
2022-11-03T02:40:51.772Z,30.08
2022-11-03T02:43:21.367Z,43.78
2022-11-03T02:45:50.508Z,27.10
2022-11-03T02:48:18.890Z,38.22
2022-11-03T02:50:47.887Z,48.80
2022-11-03T02:53:15.651Z,14.88
2022-11-03T02:56:12.323Z,31.13
2022-11-03T02:58:39.091Z,32.70
2022-11-03T03:01:37.228Z,57.03
2022-11-03T03:04:08.173Z,34.25
2022-11-03T03:06:38.872Z,24.35
2022-11-03T03:09:10.315Z,30.35
2022-11-03T03:11:42.860Z,17.00
2022-11-03T03:14:22.803Z,17.93
2022-11-03T03:16:53.724Z,27.58
2022-11-03T03:19:49.601Z,17.95
2022-11-03T03:22:22.610Z,23.17
2022-11-03T03:25:01.106Z,19.98
2022-11-03T03:27:31.072Z,13.68
2022-11-03T03:30:06.840Z,21.52
2022-11-03T03:32:38.267Z,15.73
2022-11-03T03:35:08.759Z,29.70
2022-11-03T03:37:43.309Z,36.60
2022-11-03T03:40:15.772Z,22.40
2022-11-03T03:42:45.616Z,19.25
2022-11-03T03:45:13.282Z,36.55
2022-11-03T03:47:40.577Z,31.23
2022-11-03T03:50:08.024Z,25.13
2022-11-03T03:52:36.054Z,68.38
2022-11-03T03:55:03.991Z,16.95
2022-11-03T03:57:32.156Z,20.15
2022-11-03T03:59:58.872Z,42.00
2022-11-03T04:02:25.728Z,34.78
2022-11-03T04:04:52.569Z,22.25
2022-11-03T04:07:42.501Z,20.73
2022-11-03T04:10:11.302Z,19.77
2022-11-03T04:12:59.861Z,18.50
2022-11-03T04:15:45.212Z,32.60
2022-11-03T04:18:32.888Z,18.67
2022-11-03T04:21:18.358Z,22.88
2022-11-03T04:23:45.096Z,30.60
2022-11-03T04:26:14.493Z,25.83
2022-11-03T04:28:42.343Z,16.08
2022-11-03T04:31:17.645Z,13.75
2022-11-03T04:33:44.713Z,40.65
2022-11-03T04:36:22.866Z,25.42
2022-11-03T04:38:53.053Z,27.55
2022-11-03T04:41:31.666Z,34.00
2022-11-03T04:43:58.754Z,31.15
2022-11-03T04:46:28.020Z,34.30
2022-11-03T04:48:58.952Z,28.40
2022-11-03T04:51:29.760Z,33.03
2022-11-03T04:54:02.394Z,33.50
2022-11-03T04:56:30.119Z,20.98
2022-11-03T04:58:58.650Z,21.70
2022-11-03T05:01:27.350Z,42.50
2022-11-03T05:03:55.068Z,19.60
2022-11-03T05:06:26.203Z,12.35
2022-11-03T05:08:56.561Z,16.23
2022-11-03T05:11:38.832Z,18.58
2022-11-03T05:14:32.563Z,14.10
2022-11-03T05:17:02.429Z,16.83
2022-11-03T05:19:36.497Z,23.98
2022-11-03T05:22:04.522Z,12.55
2022-11-03T05:24:32.751Z,13.85
2022-11-03T05:27:00.140Z,15.88
2022-11-03T05:29:38.535Z,13.57
2022-11-03T05:32:12.796Z,18.50
2022-11-03T05:34:57.959Z,25.23
2022-11-03T05:37:33.626Z,21.58
2022-11-03T05:40:22.025Z,22.75
2022-11-03T05:42:53.696Z,24.77
2022-11-03T05:45:34.537Z,37.47
2022-11-03T05:48:04.468Z,27.40
2022-11-03T05:50:34.933Z,20.52
2022-11-03T05:53:18.335Z,16.15
2022-11-03T05:55:45.065Z,26.05
2022-11-03T05:58:30.504Z,22.35
2022-11-03T06:00:58.776Z,23.92
2022-11-03T06:03:28.668Z,19.48
2022-11-03T06:05:56.887Z,78.95
2022-11-03T06:08:33.281Z,60.13
2022-11-03T06:11:01.359Z,40.80
2022-11-03T06:13:35.673Z,33.30
2022-11-03T06:16:08.442Z,36.10
2022-11-03T06:18:37.163Z,22.38
2022-11-03T06:21:13.077Z,18.27
2022-11-03T06:23:41.321Z,44.20
2022-11-03T06:26:18.589Z,24.27
2022-11-03T06:28:45.884Z,23.65
2022-11-03T06:31:30.380Z,15.32
2022-11-03T06:33:58.545Z,21.75
2022-11-03T06:36:28.434Z,25.10
2022-11-03T06:39:03.499Z,16.45
2022-11-03T06:41:32.659Z,32.22
2022-11-03T06:44:02.958Z,30.60
2022-11-03T06:46:30.813Z,13.85
2022-11-03T06:49:01.715Z,17.60
2022-11-03T06:51:30.676Z,10.45
2022-11-03T06:54:00.991Z,16.52
2022-11-03T06:56:36.832Z,95.10
2022-11-03T06:59:03.578Z,20.75
2022-11-03T07:01:33.540Z,12.43
2022-11-03T07:04:03.649Z,8.88
2022-11-03T07:06:34.645Z,22.73
2022-11-03T07:09:04.852Z,8.82
2022-11-03T07:11:47.462Z,21.52
2022-11-03T07:14:20.806Z,31.95
2022-11-03T07:16:50.834Z,33.75
2022-11-03T07:19:24.827Z,31.30
2022-11-03T07:21:54.908Z,28.10
2022-11-03T07:24:31.465Z,13.57
2022-11-03T07:27:26.769Z,16.02
2022-11-03T07:29:58.780Z,19.35
2022-11-03T07:32:33.902Z,9.50
2022-11-03T07:35:16.834Z,12.57
2022-11-03T07:37:44.454Z,9.55
2022-11-03T07:40:26.853Z,11.15
2022-11-03T07:42:59.368Z,10.27
2022-11-03T07:45:39.885Z,9.25
2022-11-03T07:48:29.093Z,10.68
2022-11-03T07:51:00.848Z,10.57
2022-11-03T07:53:40.282Z,10.73
2022-11-03T07:56:20.457Z,8.15
2022-11-03T07:59:26.642Z,9.48
2022-11-03T08:01:55.592Z,15.57
2022-11-03T08:04:29.156Z,18.90
2022-11-03T08:09:23.404Z,11.10
2022-11-03T08:11:50.727Z,10.25
2022-11-03T08:14:18.451Z,10.70
2022-11-03T08:16:45.306Z,14.63
2022-11-03T08:19:12.237Z,10.40
2022-11-03T08:21:39.991Z,16.17
2022-11-03T08:24:07.271Z,14.77
2022-11-03T08:26:34.079Z,17.60
2022-11-03T08:29:01.763Z,15.20
2022-11-03T08:31:28.733Z,15.85
2022-11-03T08:33:56.205Z,16.10
2022-11-03T08:36:22.992Z,12.52
2022-11-03T08:38:49.815Z,12.80
2022-11-03T08:41:17.900Z,8.82
2022-11-03T08:43:44.648Z,9.45
2022-11-03T08:46:17.698Z,11.95
2022-11-03T08:48:46.045Z,12.57
2022-11-03T08:51:14.254Z,11.38
2022-11-03T08:53:46.261Z,8.60
2022-11-03T08:56:15.182Z,9.07
2022-11-03T08:58:47.289Z,7.90
2022-11-03T09:01:14.482Z,6.45
2022-11-03T09:03:42.097Z,8.65
2022-11-03T09:06:08.945Z,8.55
2022-11-03T09:11:23.720Z,6.80
2022-11-03T09:13:50.662Z,6.43
2022-11-03T09:16:18.395Z,6.47
2022-11-03T09:18:45.533Z,7.38
2022-11-03T09:21:14.805Z,5.18
2022-11-03T09:23:42.606Z,8.27
2022-11-03T09:26:09.845Z,6.65
2022-11-03T09:28:36.556Z,4.95
2022-11-03T09:31:03.531Z,6.15
2022-11-03T09:33:32.397Z,4.80
2022-11-03T09:35:59.183Z,5.15
2022-11-03T09:38:26.294Z,6.40
2022-11-03T09:40:54.535Z,5.40
2022-11-03T09:43:21.466Z,8.80
2022-11-03T09:45:48.226Z,6.20
2022-11-03T09:48:15.194Z,5.18
2022-11-03T09:50:42.396Z,5.45
2022-11-03T09:53:12.560Z,9.00
2022-11-03T09:55:39.883Z,9.75
2022-11-03T09:58:14.577Z,8.85
2022-11-03T10:00:41.706Z,10.15
2022-11-03T10:03:17.093Z,5.53
2022-11-03T10:05:48.017Z,6.38
2022-11-03T10:08:37.400Z,4.72
2022-11-03T10:11:06.435Z,6.90
2022-11-03T10:13:48.973Z,4.65
2022-11-03T10:16:21.224Z,4.35
2022-11-03T10:18:48.456Z,7.03
2022-11-03T10:21:26.961Z,6.45
2022-11-03T10:23:53.718Z,7.68
2022-11-03T10:26:20.892Z,7.82
2022-11-03T10:29:09.645Z,6.35
2022-11-03T10:31:41.312Z,5.95
2022-11-03T10:34:35.370Z,8.73
2022-11-03T10:39:41.196Z,6.20
2022-11-03T10:42:35.952Z,7.80
2022-11-03T10:45:17.758Z,5.43
2022-11-03T10:47:44.687Z,6.47
2022-11-03T10:50:20.726Z,8.00
2022-11-03T10:52:47.861Z,5.40
2022-11-03T10:55:15.715Z,7.90
2022-11-03T10:57:48.115Z,5.75
2022-11-03T11:00:19.818Z,6.30
2022-11-03T11:02:48.309Z,5.47
2022-11-03T11:05:18.290Z,6.40
2022-11-03T11:07:45.947Z,7.10
2022-11-03T11:10:18.356Z,5.50
2022-11-03T11:13:03.782Z,6.55
2022-11-03T11:15:48.358Z,6.50
2022-11-03T11:18:30.135Z,6.95
2022-11-03T11:21:01.794Z,6.78
2022-11-03T11:23:28.753Z,6.43
2022-11-03T11:26:10.964Z,6.38
2022-11-03T11:28:42.749Z,6.05
2022-11-03T11:31:29.972Z,5.50
2022-11-03T11:34:09.086Z,5.90
2022-11-03T11:36:37.284Z,6.60
2022-11-03T11:39:09.437Z,9.20
2022-11-03T11:42:07.164Z,5.72
2022-11-03T11:44:41.062Z,7.80
2022-11-03T11:47:41.145Z,6.85
2022-11-03T11:50:10.709Z,8.55
2022-11-03T11:52:40.282Z,5.95
2022-11-03T11:55:16.222Z,5.32
2022-11-03T11:57:43.033Z,6.05
2022-11-03T12:00:25.827Z,6.05
2022-11-03T12:02:53.524Z,7.07
2022-11-03T12:05:27.706Z,8.52
2022-11-03T12:07:55.780Z,5.70
2022-11-03T12:10:27.645Z,6.95
2022-11-03T12:12:59.475Z,6.78
2022-11-03T12:15:55.256Z,5.05
2022-11-03T12:18:47.707Z,7.25
2022-11-03T12:21:48.932Z,5.90
2022-11-03T12:24:38.878Z,7.43
2022-11-03T12:27:23.885Z,6.03
2022-11-03T12:29:52.113Z,7.55
2022-11-03T12:32:32.618Z,5.45
2022-11-03T12:35:04.176Z,6.78
2022-11-03T12:37:31.430Z,6.28
2022-11-03T12:39:58.185Z,6.10
2022-11-03T12:42:25.364Z,5.40
2022-11-03T12:44:52.978Z,7.05
2022-11-03T12:47:20.797Z,6.57
2022-11-03T12:49:47.859Z,7.43
2022-11-03T12:52:15.004Z,6.43
2022-11-03T12:54:42.387Z,5.47
2022-11-03T12:57:09.279Z,5.90
2022-11-03T12:59:36.144Z,9.65
2022-11-03T13:02:04.139Z,8.30
2022-11-03T13:04:31.066Z,9.13
2022-11-03T13:06:57.792Z,7.50
2022-11-03T13:09:24.538Z,9.68
2022-11-03T13:12:09.994Z,7.13
2022-11-03T13:14:36.735Z,9.43
2022-11-03T13:17:03.834Z,7.28
2022-11-03T13:19:30.824Z,6.97
2022-11-03T13:21:57.657Z,8.75
2022-11-03T13:24:24.468Z,6.85
2022-11-03T13:26:51.236Z,5.63
2022-11-03T13:29:18.041Z,6.18
2022-11-03T13:31:44.865Z,6.68
2022-11-03T13:34:11.600Z,5.43
2022-11-03T13:36:38.309Z,10.63
2022-11-03T13:39:05.331Z,6.95
2022-11-03T13:41:32.099Z,7.32
2022-11-03T13:43:58.862Z,7.20
2022-11-03T13:46:25.731Z,8.20
2022-11-03T13:51:39.310Z,10.48
2022-11-03T13:59:40.161Z,7.30
2022-11-03T14:04:53.690Z,10.57
2022-11-03T14:07:20.573Z,8.25
2022-11-03T14:09:47.336Z,6.10
2022-11-03T14:12:32.545Z,6.72
2022-11-03T14:15:00.944Z,7.82
2022-11-03T14:17:28.130Z,5.93
2022-11-03T14:20:00.770Z,6.68
2022-11-03T14:22:30.549Z,8.23
2022-11-03T14:24:57.440Z,8.57
2022-11-03T14:27:24.315Z,7.47
2022-11-03T14:29:51.444Z,10.60
2022-11-03T14:32:19.289Z,8.02
2022-11-03T14:34:47.579Z,9.15
2022-11-03T14:37:15.093Z,8.90
2022-11-03T14:39:42.175Z,9.35
2022-11-03T14:42:15.333Z,10.27
2022-11-03T14:44:43.850Z,10.77
2022-11-03T14:47:13.334Z,8.07
2022-11-03T14:49:40.290Z,10.25
2022-11-03T14:52:07.636Z,6.80
2022-11-03T14:54:36.006Z,8.30
2022-11-03T14:57:03.609Z,7.95
2022-11-03T14:59:30.827Z,7.15
2022-11-03T15:01:58.495Z,7.03
2022-11-03T15:04:25.854Z,8.93
2022-11-03T15:06:52.624Z,9.45
2022-11-03T15:09:19.662Z,7.57
2022-11-03T15:11:47.041Z,6.10
2022-11-03T15:14:13.914Z,7.68
2022-11-03T15:16:41.009Z,10.00
2022-11-03T15:19:08.700Z,12.20
2022-11-03T15:21:35.858Z,8.55
2022-11-03T15:26:49.595Z,12.35
2022-11-03T15:29:16.337Z,9.18
2022-11-03T15:31:47.600Z,8.02
2022-11-03T15:34:15.601Z,12.18
2022-11-03T15:36:42.560Z,7.05
2022-11-03T15:39:09.554Z,8.57
2022-11-03T15:41:36.392Z,10.02
2022-11-03T15:44:03.107Z,17.67
2022-11-03T15:46:29.882Z,14.05
2022-11-03T15:48:57.481Z,12.00
2022-11-03T15:51:24.523Z,9.68
2022-11-03T15:53:56.744Z,11.20
2022-11-03T15:56:28.805Z,9.32
2022-11-03T15:58:55.570Z,10.00
2022-11-03T16:01:22.542Z,9.40
2022-11-03T16:03:49.532Z,11.40
2022-11-03T16:06:16.358Z,9.90
2022-11-03T16:08:43.483Z,10.07
2022-11-03T16:11:10.202Z,13.38
2022-11-03T16:13:37.258Z,13.07
2022-11-03T16:16:04.324Z,10.68
2022-11-03T16:18:31.053Z,12.98
2022-11-03T16:20:57.765Z,9.13
2022-11-03T16:23:24.714Z,12.82
2022-11-03T16:25:51.505Z,12.75
2022-11-03T16:28:18.252Z,16.17
2022-11-03T16:30:47.401Z,16.48
2022-11-03T16:33:18.028Z,15.80
2022-11-03T16:35:45.044Z,12.48
2022-11-03T16:38:13.488Z,14.07
2022-11-03T16:40:40.296Z,12.57
2022-11-03T16:43:07.151Z,12.70
2022-11-03T16:45:37.664Z,13.90
2022-11-03T16:48:06.504Z,16.05
2022-11-03T16:50:34.106Z,10.25
2022-11-03T16:53:00.891Z,14.20
2022-11-03T16:55:27.632Z,13.57
2022-11-03T16:57:54.385Z,10.63
2022-11-03T17:00:21.588Z,11.07
2022-11-03T17:02:48.386Z,12.75
2022-11-03T17:05:17.446Z,10.18
2022-11-03T17:07:50.098Z,11.38
2022-11-03T17:10:20.005Z,15.30
2022-11-03T17:12:46.776Z,13.02
2022-11-03T17:15:13.552Z,11.68
2022-11-03T17:17:40.422Z,10.52
2022-11-03T17:20:08.763Z,10.68
2022-11-03T17:22:35.488Z,13.95
2022-11-03T17:25:02.884Z,9.65
2022-11-03T17:27:38.209Z,10.25
2022-11-03T17:30:08.906Z,9.65
2022-11-03T17:32:40.211Z,12.40
2022-11-03T17:35:23.121Z,13.18
2022-11-03T17:37:51.893Z,12.80
2022-11-03T17:40:25.315Z,12.27
2022-11-03T17:45:21.882Z,12.63
2022-11-03T17:47:52.327Z,15.48
2022-11-03T17:50:23.959Z,11.35
2022-11-03T17:52:54.874Z,16.25
2022-11-03T17:55:30.350Z,12.68
2022-11-03T17:58:02.840Z,11.38
2022-11-03T18:00:30.092Z,15.47
2022-11-03T18:02:57.319Z,11.82
2022-11-03T18:05:27.259Z,16.48
2022-11-03T18:07:54.878Z,16.10
2022-11-03T18:10:27.355Z,16.48
2022-11-03T18:13:15.288Z,12.52
2022-11-03T18:15:53.479Z,10.13
2022-11-03T18:18:32.447Z,14.45
2022-11-03T18:20:59.448Z,13.77
2022-11-03T18:23:34.610Z,14.35
2022-11-03T18:26:02.434Z,20.50
2022-11-03T18:28:29.273Z,16.83
2022-11-03T18:30:56.935Z,19.10
2022-11-03T18:33:30.621Z,15.73
2022-11-03T18:35:58.911Z,17.48
2022-11-03T18:38:26.536Z,14.63
2022-11-03T18:40:53.737Z,17.25
2022-11-03T18:43:22.575Z,16.83
2022-11-03T18:45:49.955Z,16.33
2022-11-03T18:48:20.283Z,15.68
2022-11-03T18:50:51.436Z,14.50
2022-11-03T18:53:22.649Z,16.67
2022-11-03T18:55:49.632Z,19.73
2022-11-03T18:58:24.719Z,18.05
2022-11-03T19:00:54.715Z,19.92
2022-11-03T19:03:23.376Z,15.55
2022-11-03T19:05:52.520Z,13.52
2022-11-03T19:08:22.927Z,14.95
2022-11-03T19:10:50.985Z,15.43
2022-11-03T19:13:33.162Z,17.33
2022-11-03T19:16:01.201Z,20.05
2022-11-03T19:18:29.958Z,16.48
2022-11-03T19:20:56.824Z,18.52
2022-11-03T19:23:23.931Z,16.23
2022-11-03T19:25:58.619Z,14.90
2022-11-03T19:28:29.532Z,17.90
2022-11-03T19:30:58.154Z,16.85
2022-11-03T19:33:28.146Z,21.00
2022-11-03T19:35:55.421Z,14.75
2022-11-03T19:38:22.232Z,17.90
2022-11-03T19:41:07.517Z,16.55
2022-11-03T19:43:35.262Z,15.18
2022-11-03T19:46:03.097Z,15.63
2022-11-03T19:48:33.038Z,13.82
2022-11-03T19:50:59.932Z,16.10
2022-11-03T19:53:29.134Z,13.35
2022-11-03T19:55:56.703Z,15.35
2022-11-03T19:58:27.657Z,13.20
2022-11-03T20:00:55.341Z,10.52
2022-11-03T20:03:22.684Z,14.02
2022-11-03T20:05:53.449Z,15.23
2022-11-03T20:08:24.033Z,13.77
2022-11-03T20:10:51.841Z,16.38
2022-11-03T20:13:21.814Z,12.50
2022-11-03T20:15:49.166Z,14.45
2022-11-03T20:18:16.483Z,18.58
2022-11-03T20:20:45.403Z,17.27
2022-11-03T20:23:23.300Z,13.85
2022-11-03T20:25:50.241Z,13.45
2022-11-03T20:28:24.872Z,9.32
2022-11-03T20:30:53.221Z,14.85
2022-11-03T20:33:22.485Z,9.40
2022-11-03T20:35:51.320Z,10.20
2022-11-03T20:38:19.804Z,13.38
2022-11-03T20:40:47.876Z,13.93
2022-11-03T20:43:35.242Z,13.68
2022-11-03T20:46:03.979Z,12.65
2022-11-03T20:48:30.689Z,14.23
2022-11-03T20:50:58.826Z,14.50
2022-11-03T20:53:26.405Z,14.45
2022-11-03T20:55:53.683Z,11.75
2022-11-03T20:58:21.010Z,11.57
2022-11-03T21:00:48.950Z,12.98
2022-11-03T21:06:16.512Z,12.90
2022-11-03T21:08:44.746Z,13.43
2022-11-03T21:11:29.169Z,13.57
2022-11-03T21:13:59.158Z,11.98
2022-11-03T21:16:46.109Z,14.18
2022-11-03T21:19:34.025Z,11.80
2022-11-03T21:22:01.028Z,12.85
2022-11-03T21:24:27.829Z,15.40
2022-11-03T21:26:54.588Z,15.18
2022-11-03T21:29:38.951Z,14.30
2022-11-03T21:32:11.655Z,10.98
2022-11-03T21:34:39.201Z,14.52
2022-11-03T21:37:05.955Z,12.43
2022-11-03T21:39:32.913Z,14.57
2022-11-03T21:42:18.357Z,15.57
2022-11-03T21:44:45.081Z,18.10
2022-11-03T21:47:12.139Z,15.60
2022-11-03T21:49:44.875Z,12.05
2022-11-03T21:52:17.299Z,13.25
2022-11-03T21:54:44.555Z,12.70
2022-11-03T21:57:15.226Z,15.40
2022-11-03T21:59:42.065Z,12.65
2022-11-03T22:02:11.925Z,13.02
2022-11-03T22:04:38.660Z,13.27
2022-11-03T22:07:05.890Z,16.13
2022-11-03T22:09:32.834Z,12.40
2022-11-03T22:11:59.602Z,15.30
2022-11-03T22:14:49.364Z,13.75
2022-11-03T22:17:16.140Z,14.63
2022-11-03T22:20:01.341Z,18.98
2022-11-03T22:22:46.758Z,13.77
2022-11-03T22:25:32.155Z,16.20
2022-11-03T22:27:58.943Z,15.40
2022-11-03T22:30:44.467Z,14.98
2022-11-03T22:33:13.077Z,13.90
2022-11-03T22:35:58.364Z,12.98
2022-11-03T22:38:43.808Z,13.82
2022-11-03T22:41:29.193Z,13.45
2022-11-03T22:44:14.655Z,13.20
2022-11-03T22:46:41.564Z,14.82
2022-11-03T22:49:08.280Z,13.27
2022-11-03T22:51:35.015Z,13.60
2022-11-03T22:54:10.581Z,11.95
2022-11-03T22:56:38.632Z,13.25
2022-11-03T22:59:06.995Z,13.65
2022-11-03T23:01:34.273Z,11.90
2022-11-03T23:04:01.654Z,10.45
2022-11-03T23:06:33.429Z,11.30
2022-11-03T23:09:00.684Z,11.27
2022-11-03T23:11:32.397Z,10.75
2022-11-03T23:14:04.338Z,10.73
2022-11-03T23:16:33.738Z,11.65
2022-11-03T23:19:19.487Z,12.00
2022-11-03T23:21:48.104Z,11.98
2022-11-03T23:24:33.693Z,11.07
2022-11-03T23:27:01.260Z,17.40
2022-11-03T23:29:28.392Z,13.52
2022-11-03T23:31:56.114Z,13.82
2022-11-03T23:34:23.015Z,19.17
2022-11-03T23:36:50.093Z,17.83
2022-11-03T23:39:18.910Z,19.30
2022-11-03T23:41:46.437Z,14.10
2022-11-03T23:44:15.432Z,15.07
2022-11-03T23:47:01.768Z,13.23
2022-11-03T23:49:28.848Z,14.55
2022-11-03T23:51:55.641Z,11.13
2022-11-03T23:54:22.366Z,12.85
2022-11-03T23:57:07.914Z,13.93
2022-11-03T23:59:34.954Z,13.65
